sensor_id;sensor_type;location;lat;lon;timestamp;P1;durP1;ratioP1;P2;durP2;ratioP2
22184;SDS011;11258;52.516;13.318;2023-11-18T00:00:00;5.17;;;4.03;;
22184;SDS011;11258;52.516;13.318;2023-11-18T00:02:28;5.93;;;3.53;;
22184;SDS011;11258;52.516;13.318;2023-11-18T00:04:54;6.60;;;3.37;;
22184;SDS011;11258;52.516;13.318;2023-11-18T00:07:19;7.43;;;4.50;;
22184;SDS011;11258;52.516;13.318;2023-11-18T00:09:45;7.03;;;3.63;;
22184;SDS011;11258;52.516;13.318;2023-11-18T00:12:11;6.77;;;4.13;;
22184;SDS011;11258;52.516;13.318;2023-11-18T00:14:37;6.63;;;4.23;;
22184;SDS011;11258;52.516;13.318;2023-11-18T00:17:03;7.43;;;4.27;;
22184;SDS011;11258;52.516;13.318;2023-11-18T00:19:29;8.03;;;4.40;;
22184;SDS011;11258;52.516;13.318;2023-11-18T00:21:55;6.30;;;3.90;;
22184;SDS011;11258;52.516;13.318;2023-11-18T00:24:20;6.53;;;3.93;;
22184;SDS011;11258;52.516;13.318;2023-11-18T00:26:46;8.70;;;4.20;;
22184;SDS011;11258;52.516;13.318;2023-11-18T00:29:12;5.63;;;3.70;;
22184;SDS011;11258;52.516;13.318;2023-11-18T00:31:38;7.77;;;4.37;;
22184;SDS011;11258;52.516;13.318;2023-11-18T00:34:04;6.53;;;4.20;;
22184;SDS011;11258;52.516;13.318;2023-11-18T00:36:29;6.67;;;3.60;;
22184;SDS011;11258;52.516;13.318;2023-11-18T00:38:55;6.77;;;3.90;;
22184;SDS011;11258;52.516;13.318;2023-11-18T00:41:20;5.23;;;4.00;;
22184;SDS011;11258;52.516;13.318;2023-11-18T00:43:46;6.77;;;3.47;;
22184;SDS011;11258;52.516;13.318;2023-11-18T00:46:12;7.73;;;4.13;;
22184;SDS011;11258;52.516;13.318;2023-11-18T00:48:38;5.90;;;3.67;;
22184;SDS011;11258;52.516;13.318;2023-11-18T00:51:04;8.00;;;4.53;;
22184;SDS011;11258;52.516;13.318;2023-11-18T00:53:31;8.70;;;3.73;;
22184;SDS011;11258;52.516;13.318;2023-11-18T00:55:56;9.20;;;4.77;;
22184;SDS011;11258;52.516;13.318;2023-11-18T00:58:22;7.07;;;4.23;;
22184;SDS011;11258;52.516;13.318;2023-11-18T01:00:48;8.03;;;4.67;;
22184;SDS011;11258;52.516;13.318;2023-11-18T01:03:13;7.10;;;4.03;;
22184;SDS011;11258;52.516;13.318;2023-11-18T01:05:39;7.57;;;4.10;;
22184;SDS011;11258;52.516;13.318;2023-11-18T01:08:05;7.77;;;4.33;;
22184;SDS011;11258;52.516;13.318;2023-11-18T01:10:31;7.33;;;4.03;;
22184;SDS011;11258;52.516;13.318;2023-11-18T01:12:57;11.20;;;3.83;;
22184;SDS011;11258;52.516;13.318;2023-11-18T01:15:23;6.93;;;4.87;;
22184;SDS011;11258;52.516;13.318;2023-11-18T01:17:49;6.97;;;4.80;;
22184;SDS011;11258;52.516;13.318;2023-11-18T01:20:14;6.77;;;4.13;;
22184;SDS011;11258;52.516;13.318;2023-11-18T01:22:46;8.37;;;4.30;;
22184;SDS011;11258;52.516;13.318;2023-11-18T01:25:13;7.57;;;4.20;;
22184;SDS011;11258;52.516;13.318;2023-11-18T01:27:42;5.33;;;3.13;;
22184;SDS011;11258;52.516;13.318;2023-11-18T01:30:12;8.10;;;4.10;;
22184;SDS011;11258;52.516;13.318;2023-11-18T01:32:38;5.70;;;3.53;;
22184;SDS011;11258;52.516;13.318;2023-11-18T01:35:05;5.83;;;3.77;;
22184;SDS011;11258;52.516;13.318;2023-11-18T01:37:31;6.13;;;3.70;;
22184;SDS011;11258;52.516;13.318;2023-11-18T01:39:57;7.63;;;4.20;;
22184;SDS011;11258;52.516;13.318;2023-11-18T01:42:22;8.07;;;4.50;;
22184;SDS011;11258;52.516;13.318;2023-11-18T01:44:48;6.30;;;3.90;;
22184;SDS011;11258;52.516;13.318;2023-11-18T01:47:13;6.80;;;3.83;;
22184;SDS011;11258;52.516;13.318;2023-11-18T01:49:39;5.30;;;3.63;;
22184;SDS011;11258;52.516;13.318;2023-11-18T01:52:09;5.97;;;3.73;;
22184;SDS011;11258;52.516;13.318;2023-11-18T01:54:38;6.90;;;4.33;;
22184;SDS011;11258;52.516;13.318;2023-11-18T01:57:05;5.60;;;3.77;;
22184;SDS011;11258;52.516;13.318;2023-11-18T01:59:31;7.93;;;3.90;;
22184;SDS011;11258;52.516;13.318;2023-11-18T02:01:58;5.27;;;3.37;;
22184;SDS011;11258;52.516;13.318;2023-11-18T02:04:25;6.03;;;3.43;;
22184;SDS011;11258;52.516;13.318;2023-11-18T02:06:51;5.83;;;3.30;;
22184;SDS011;11258;52.516;13.318;2023-11-18T02:09:18;5.87;;;3.07;;
22184;SDS011;11258;52.516;13.318;2023-11-18T02:14:30;7.73;;;4.23;;
22184;SDS011;11258;52.516;13.318;2023-11-18T02:16:59;5.17;;;3.20;;
22184;SDS011;11258;52.516;13.318;2023-11-18T02:19:28;5.50;;;3.77;;
22184;SDS011;11258;52.516;13.318;2023-11-18T02:21:55;6.10;;;3.60;;
22184;SDS011;11258;52.516;13.318;2023-11-18T02:24:28;6.63;;;3.80;;
22184;SDS011;11258;52.516;13.318;2023-11-18T02:27:06;6.23;;;3.83;;
22184;SDS011;11258;52.516;13.318;2023-11-18T02:29:36;5.57;;;3.40;;
22184;SDS011;11258;52.516;13.318;2023-11-18T02:32:07;6.00;;;3.60;;
22184;SDS011;11258;52.516;13.318;2023-11-18T02:34:41;7.30;;;4.17;;
22184;SDS011;11258;52.516;13.318;2023-11-18T02:37:14;7.00;;;4.00;;
22184;SDS011;11258;52.516;13.318;2023-11-18T02:39:42;7.23;;;4.17;;
22184;SDS011;11258;52.516;13.318;2023-11-18T02:42:11;5.80;;;3.87;;
22184;SDS011;11258;52.516;13.318;2023-11-18T02:44:38;5.80;;;3.53;;
22184;SDS011;11258;52.516;13.318;2023-11-18T02:47:05;8.30;;;4.30;;
22184;SDS011;11258;52.516;13.318;2023-11-18T02:49:31;7.40;;;4.10;;
22184;SDS011;11258;52.516;13.318;2023-11-18T02:51:57;7.20;;;3.97;;
22184;SDS011;11258;52.516;13.318;2023-11-18T02:54:23;6.93;;;4.33;;
22184;SDS011;11258;52.516;13.318;2023-11-18T02:56:48;7.00;;;4.00;;
22184;SDS011;11258;52.516;13.318;2023-11-18T02:59:15;6.37;;;4.00;;
22184;SDS011;11258;52.516;13.318;2023-11-18T03:01:41;7.43;;;3.77;;
22184;SDS011;11258;52.516;13.318;2023-11-18T03:04:07;8.10;;;3.73;;
22184;SDS011;11258;52.516;13.318;2023-11-18T03:06:33;5.93;;;3.50;;
22184;SDS011;11258;52.516;13.318;2023-11-18T03:09:00;8.20;;;4.37;;
22184;SDS011;11258;52.516;13.318;2023-11-18T03:11:27;6.97;;;4.00;;
22184;SDS011;11258;52.516;13.318;2023-11-18T03:13:56;6.50;;;3.93;;
22184;SDS011;11258;52.516;13.318;2023-11-18T03:16:22;7.97;;;4.10;;
22184;SDS011;11258;52.516;13.318;2023-11-18T03:18:49;6.10;;;4.10;;
22184;SDS011;11258;52.516;13.318;2023-11-18T03:21:15;5.73;;;3.80;;
22184;SDS011;11258;52.516;13.318;2023-11-18T03:23:41;7.20;;;4.20;;
22184;SDS011;11258;52.516;13.318;2023-11-18T03:26:07;6.93;;;3.70;;
22184;SDS011;11258;52.516;13.318;2023-11-18T03:28:35;7.00;;;4.27;;
22184;SDS011;11258;52.516;13.318;2023-11-18T03:31:04;5.47;;;3.60;;
22184;SDS011;11258;52.516;13.318;2023-11-18T03:33:30;5.53;;;3.40;;
22184;SDS011;11258;52.516;13.318;2023-11-18T03:35:56;6.83;;;3.97;;
22184;SDS011;11258;52.516;13.318;2023-11-18T03:38:22;7.20;;;3.47;;
22184;SDS011;11258;52.516;13.318;2023-11-18T03:40:49;7.73;;;3.30;;
22184;SDS011;11258;52.516;13.318;2023-11-18T03:43:17;6.70;;;3.27;;
22184;SDS011;11258;52.516;13.318;2023-11-18T03:45:43;5.70;;;3.80;;
22184;SDS011;11258;52.516;13.318;2023-11-18T03:48:08;7.67;;;3.70;;
22184;SDS011;11258;52.516;13.318;2023-11-18T03:50:39;8.17;;;4.13;;
22184;SDS011;11258;52.516;13.318;2023-11-18T03:53:05;6.07;;;2.90;;
22184;SDS011;11258;52.516;13.318;2023-11-18T03:55:31;5.70;;;3.70;;
22184;SDS011;11258;52.516;13.318;2023-11-18T03:57:57;6.07;;;3.53;;
22184;SDS011;11258;52.516;13.318;2023-11-18T04:00:22;6.97;;;3.97;;
22184;SDS011;11258;52.516;13.318;2023-11-18T04:02:55;6.23;;;3.60;;
22184;SDS011;11258;52.516;13.318;2023-11-18T04:05:21;7.50;;;4.73;;
22184;SDS011;11258;52.516;13.318;2023-11-18T04:07:47;8.07;;;4.07;;
22184;SDS011;11258;52.516;13.318;2023-11-18T04:10:13;6.03;;;3.80;;
22184;SDS011;11258;52.516;13.318;2023-11-18T04:12:38;7.60;;;4.30;;
22184;SDS011;11258;52.516;13.318;2023-11-18T04:15:04;7.27;;;4.43;;
22184;SDS011;11258;52.516;13.318;2023-11-18T04:17:31;6.93;;;4.30;;
22184;SDS011;11258;52.516;13.318;2023-11-18T04:19:57;7.90;;;4.47;;
22184;SDS011;11258;52.516;13.318;2023-11-18T04:22:22;7.40;;;4.67;;
22184;SDS011;11258;52.516;13.318;2023-11-18T04:24:48;8.33;;;3.87;;
22184;SDS011;11258;52.516;13.318;2023-11-18T04:27:15;8.53;;;4.13;;
22184;SDS011;11258;52.516;13.318;2023-11-18T04:29:41;7.53;;;4.87;;
22184;SDS011;11258;52.516;13.318;2023-11-18T04:32:07;6.63;;;4.43;;
22184;SDS011;11258;52.516;13.318;2023-11-18T04:34:36;10.07;;;4.87;;
22184;SDS011;11258;52.516;13.318;2023-11-18T04:37:03;8.37;;;4.40;;
22184;SDS011;11258;52.516;13.318;2023-11-18T04:39:31;8.03;;;4.70;;
22184;SDS011;11258;52.516;13.318;2023-11-18T04:41:57;7.20;;;4.37;;
22184;SDS011;11258;52.516;13.318;2023-11-18T04:44:23;8.67;;;4.67;;
22184;SDS011;11258;52.516;13.318;2023-11-18T04:46:48;8.67;;;4.73;;
22184;SDS011;11258;52.516;13.318;2023-11-18T04:49:15;8.07;;;4.67;;
22184;SDS011;11258;52.516;13.318;2023-11-18T04:51:40;9.27;;;4.87;;
22184;SDS011;11258;52.516;13.318;2023-11-18T04:54:06;8.47;;;4.47;;
22184;SDS011;11258;52.516;13.318;2023-11-18T04:56:33;7.23;;;4.20;;
22184;SDS011;11258;52.516;13.318;2023-11-18T04:59:02;10.30;;;4.23;;
22184;SDS011;11258;52.516;13.318;2023-11-18T05:01:30;8.90;;;5.15;;
22184;SDS011;11258;52.516;13.318;2023-11-18T05:03:56;6.83;;;3.90;;
22184;SDS011;11258;52.516;13.318;2023-11-18T05:06:22;7.73;;;4.33;;
22184;SDS011;11258;52.516;13.318;2023-11-18T05:08:48;8.63;;;4.43;;
22184;SDS011;11258;52.516;13.318;2023-11-18T05:11:14;7.40;;;4.13;;
22184;SDS011;11258;52.516;13.318;2023-11-18T05:13:40;7.93;;;4.27;;
22184;SDS011;11258;52.516;13.318;2023-11-18T05:16:06;9.10;;;4.57;;
22184;SDS011;11258;52.516;13.318;2023-11-18T05:18:32;7.60;;;4.60;;
22184;SDS011;11258;52.516;13.318;2023-11-18T05:21:01;9.50;;;4.57;;
22184;SDS011;11258;52.516;13.318;2023-11-18T05:23:28;6.17;;;3.73;;
22184;SDS011;11258;52.516;13.318;2023-11-18T05:25:57;9.13;;;4.00;;
22184;SDS011;11258;52.516;13.318;2023-11-18T05:28:26;8.80;;;4.60;;
22184;SDS011;11258;52.516;13.318;2023-11-18T05:30:51;9.13;;;5.07;;
22184;SDS011;11258;52.516;13.318;2023-11-18T05:33:17;6.77;;;3.87;;
22184;SDS011;11258;52.516;13.318;2023-11-18T05:35:44;7.93;;;4.50;;
22184;SDS011;11258;52.516;13.318;2023-11-18T05:38:17;7.07;;;4.07;;
22184;SDS011;11258;52.516;13.318;2023-11-18T05:40:46;9.23;;;5.03;;
22184;SDS011;11258;52.516;13.318;2023-11-18T05:43:22;9.67;;;4.57;;
22184;SDS011;11258;52.516;13.318;2023-11-18T05:45:50;7.90;;;4.77;;
22184;SDS011;11258;52.516;13.318;2023-11-18T05:48:35;7.63;;;4.70;;
22184;SDS011;11258;52.516;13.318;2023-11-18T05:51:00;9.23;;;4.60;;
22184;SDS011;11258;52.516;13.318;2023-11-18T05:53:26;8.83;;;5.10;;
22184;SDS011;11258;52.516;13.318;2023-11-18T05:55:52;9.23;;;5.17;;
22184;SDS011;11258;52.516;13.318;2023-11-18T05:58:18;9.90;;;5.23;;
22184;SDS011;11258;52.516;13.318;2023-11-18T06:00:43;9.13;;;4.87;;
22184;SDS011;11258;52.516;13.318;2023-11-18T06:03:11;9.47;;;4.67;;
22184;SDS011;11258;52.516;13.318;2023-11-18T06:05:37;10.23;;;4.87;;
22184;SDS011;11258;52.516;13.318;2023-11-18T06:08:03;6.97;;;3.37;;
22184;SDS011;11258;52.516;13.318;2023-11-18T06:10:29;7.63;;;4.13;;
22184;SDS011;11258;52.516;13.318;2023-11-18T06:12:57;8.23;;;4.17;;
22184;SDS011;11258;52.516;13.318;2023-11-18T06:15:23;8.20;;;4.43;;
22184;SDS011;11258;52.516;13.318;2023-11-18T06:17:49;7.57;;;4.47;;
22184;SDS011;11258;52.516;13.318;2023-11-18T06:20:15;7.67;;;4.10;;
22184;SDS011;11258;52.516;13.318;2023-11-18T06:22:42;7.30;;;4.13;;
22184;SDS011;11258;52.516;13.318;2023-11-18T06:25:08;8.70;;;4.53;;
22184;SDS011;11258;52.516;13.318;2023-11-18T06:27:34;9.63;;;5.33;;
22184;SDS011;11258;52.516;13.318;2023-11-18T06:29:59;8.37;;;5.03;;
22184;SDS011;11258;52.516;13.318;2023-11-18T06:32:25;8.37;;;4.40;;
22184;SDS011;11258;52.516;13.318;2023-11-18T06:34:51;9.97;;;4.93;;
22184;SDS011;11258;52.516;13.318;2023-11-18T06:37:18;8.60;;;4.27;;
22184;SDS011;11258;52.516;13.318;2023-11-18T06:39:44;11.00;;;5.10;;
22184;SDS011;11258;52.516;13.318;2023-11-18T06:42:12;7.50;;;4.37;;
22184;SDS011;11258;52.516;13.318;2023-11-18T06:44:39;7.23;;;4.43;;
22184;SDS011;11258;52.516;13.318;2023-11-18T06:47:05;7.83;;;4.90;;
22184;SDS011;11258;52.516;13.318;2023-11-18T06:49:31;8.47;;;4.83;;
22184;SDS011;11258;52.516;13.318;2023-11-18T06:51:59;10.17;;;5.30;;
22184;SDS011;11258;52.516;13.318;2023-11-18T06:54:29;8.23;;;4.73;;
22184;SDS011;11258;52.516;13.318;2023-11-18T06:56:55;9.83;;;5.40;;
22184;SDS011;11258;52.516;13.318;2023-11-18T06:59:21;10.80;;;5.57;;
22184;SDS011;11258;52.516;13.318;2023-11-18T07:01:47;9.40;;;4.77;;
22184;SDS011;11258;52.516;13.318;2023-11-18T07:04:13;8.87;;;5.30;;
22184;SDS011;11258;52.516;13.318;2023-11-18T07:06:39;10.37;;;5.73;;
22184;SDS011;11258;52.516;13.318;2023-11-18T07:09:06;11.30;;;5.87;;
22184;SDS011;11258;52.516;13.318;2023-11-18T07:11:42;9.97;;;5.47;;
22184;SDS011;11258;52.516;13.318;2023-11-18T07:14:08;9.10;;;5.60;;
22184;SDS011;11258;52.516;13.318;2023-11-18T07:16:35;10.03;;;5.00;;
22184;SDS011;11258;52.516;13.318;2023-11-18T07:19:02;11.57;;;5.40;;
22184;SDS011;11258;52.516;13.318;2023-11-18T07:21:31;10.07;;;5.70;;
22184;SDS011;11258;52.516;13.318;2023-11-18T07:23:58;11.00;;;5.43;;
22184;SDS011;11258;52.516;13.318;2023-11-18T07:26:24;8.93;;;4.97;;
22184;SDS011;11258;52.516;13.318;2023-11-18T07:28:50;9.53;;;5.20;;
22184;SDS011;11258;52.516;13.318;2023-11-18T07:31:16;10.87;;;5.83;;
22184;SDS011;11258;52.516;13.318;2023-11-18T07:33:43;11.53;;;5.73;;
22184;SDS011;11258;52.516;13.318;2023-11-18T07:36:14;9.57;;;5.47;;
22184;SDS011;11258;52.516;13.318;2023-11-18T07:38:44;9.37;;;6.13;;
22184;SDS011;11258;52.516;13.318;2023-11-18T07:41:11;10.27;;;5.70;;
22184;SDS011;11258;52.516;13.318;2023-11-18T07:43:48;9.83;;;5.73;;
22184;SDS011;11258;52.516;13.318;2023-11-18T07:46:21;7.93;;;4.70;;
22184;SDS011;11258;52.516;13.318;2023-11-18T07:48:48;8.73;;;5.10;;
22184;SDS011;11258;52.516;13.318;2023-11-18T07:51:20;8.40;;;5.00;;
22184;SDS011;11258;52.516;13.318;2023-11-18T07:53:49;8.73;;;4.87;;
22184;SDS011;11258;52.516;13.318;2023-11-18T07:56:16;13.17;;;6.30;;
22184;SDS011;11258;52.516;13.318;2023-11-18T07:58:42;11.43;;;5.67;;
22184;SDS011;11258;52.516;13.318;2023-11-18T08:01:11;8.23;;;5.07;;
22184;SDS011;11258;52.516;13.318;2023-11-18T08:03:37;7.77;;;4.87;;
22184;SDS011;11258;52.516;13.318;2023-11-18T08:06:03;8.90;;;5.00;;
22184;SDS011;11258;52.516;13.318;2023-11-18T08:08:32;10.33;;;5.00;;
22184;SDS011;11258;52.516;13.318;2023-11-18T08:10:58;8.70;;;4.83;;
22184;SDS011;11258;52.516;13.318;2023-11-18T08:13:23;8.23;;;4.67;;
22184;SDS011;11258;52.516;13.318;2023-11-18T08:15:49;8.33;;;4.93;;
22184;SDS011;11258;52.516;13.318;2023-11-18T08:18:15;11.37;;;5.80;;
22184;SDS011;11258;52.516;13.318;2023-11-18T08:20:40;7.83;;;5.30;;
22184;SDS011;11258;52.516;13.318;2023-11-18T08:23:08;7.97;;;4.57;;
22184;SDS011;11258;52.516;13.318;2023-11-18T08:25:34;8.97;;;5.10;;
22184;SDS011;11258;52.516;13.318;2023-11-18T08:28:03;11.23;;;4.97;;
22184;SDS011;11258;52.516;13.318;2023-11-18T08:30:29;9.73;;;4.77;;
22184;SDS011;11258;52.516;13.318;2023-11-18T08:32:55;8.57;;;4.77;;
22184;SDS011;11258;52.516;13.318;2023-11-18T08:35:22;7.80;;;4.33;;
22184;SDS011;11258;52.516;13.318;2023-11-18T08:37:48;10.20;;;5.23;;
22184;SDS011;11258;52.516;13.318;2023-11-18T08:40:13;8.53;;;5.03;;
22184;SDS011;11258;52.516;13.318;2023-11-18T08:42:50;8.80;;;4.73;;
22184;SDS011;11258;52.516;13.318;2023-11-18T08:45:17;9.93;;;5.73;;
22184;SDS011;11258;52.516;13.318;2023-11-18T08:47:44;9.80;;;5.30;;
22184;SDS011;11258;52.516;13.318;2023-11-18T08:50:12;6.43;;;4.00;;
22184;SDS011;11258;52.516;13.318;2023-11-18T08:52:39;7.50;;;4.40;;
22184;SDS011;11258;52.516;13.318;2023-11-18T08:55:14;8.57;;;4.83;;
22184;SDS011;11258;52.516;13.318;2023-11-18T08:57:48;11.33;;;5.13;;
22184;SDS011;11258;52.516;13.318;2023-11-18T09:00:23;6.50;;;3.93;;
22184;SDS011;11258;52.516;13.318;2023-11-18T09:03:14;8.73;;;4.60;;
22184;SDS011;11258;52.516;13.318;2023-11-18T09:05:59;8.20;;;4.57;;
22184;SDS011;11258;52.516;13.318;2023-11-18T09:08:50;7.43;;;4.07;;
22184;SDS011;11258;52.516;13.318;2023-11-18T09:11:20;9.17;;;4.70;;
22184;SDS011;11258;52.516;13.318;2023-11-18T09:13:47;8.90;;;4.17;;
22184;SDS011;11258;52.516;13.318;2023-11-18T09:16:19;10.13;;;4.67;;
22184;SDS011;11258;52.516;13.318;2023-11-18T09:18:51;8.90;;;4.80;;
22184;SDS011;11258;52.516;13.318;2023-11-18T09:21:17;7.40;;;4.20;;
22184;SDS011;11258;52.516;13.318;2023-11-18T09:23:49;10.70;;;4.80;;
22184;SDS011;11258;52.516;13.318;2023-11-18T09:26:15;7.80;;;3.90;;
22184;SDS011;11258;52.516;13.318;2023-11-18T09:28:41;9.27;;;4.43;;
22184;SDS011;11258;52.516;13.318;2023-11-18T09:31:10;9.10;;;4.70;;
22184;SDS011;11258;52.516;13.318;2023-11-18T09:33:37;8.73;;;4.97;;
22184;SDS011;11258;52.516;13.318;2023-11-18T09:36:07;7.60;;;4.47;;
22184;SDS011;11258;52.516;13.318;2023-11-18T09:38:37;9.40;;;4.70;;
22184;SDS011;11258;52.516;13.318;2023-11-18T09:41:10;7.77;;;5.03;;
22184;SDS011;11258;52.516;13.318;2023-11-18T09:43:39;8.77;;;4.90;;
22184;SDS011;11258;52.516;13.318;2023-11-18T09:48:52;9.90;;;4.77;;
22184;SDS011;11258;52.516;13.318;2023-11-18T09:51:40;10.13;;;4.37;;
22184;SDS011;11258;52.516;13.318;2023-11-18T09:54:33;8.57;;;4.37;;
22184;SDS011;11258;52.516;13.318;2023-11-18T09:57:26;7.80;;;4.97;;
22184;SDS011;11258;52.516;13.318;2023-11-18T10:00:05;9.33;;;5.00;;
22184;SDS011;11258;52.516;13.318;2023-11-18T10:02:45;12.37;;;5.73;;
22184;SDS011;11258;52.516;13.318;2023-11-18T10:05:13;9.13;;;5.40;;
22184;SDS011;11258;52.516;13.318;2023-11-18T10:07:41;9.30;;;5.63;;
22184;SDS011;11258;52.516;13.318;2023-11-18T10:10:08;10.27;;;5.93;;
22184;SDS011;11258;52.516;13.318;2023-11-18T10:12:41;9.00;;;4.93;;
22184;SDS011;11258;52.516;13.318;2023-11-18T10:15:09;8.07;;;5.03;;
22184;SDS011;11258;52.516;13.318;2023-11-18T10:17:41;9.83;;;5.07;;
22184;SDS011;11258;52.516;13.318;2023-11-18T10:20:47;11.63;;;6.13;;
22184;SDS011;11258;52.516;13.318;2023-11-18T10:23:20;12.27;;;5.97;;
22184;SDS011;11258;52.516;13.318;2023-11-18T10:25:51;11.73;;;5.77;;
22184;SDS011;11258;52.516;13.318;2023-11-18T10:30:52;9.00;;;5.13;;
22184;SDS011;11258;52.516;13.318;2023-11-18T10:33:28;8.53;;;5.13;;
22184;SDS011;11258;52.516;13.318;2023-11-18T10:36:01;11.00;;;5.17;;
22184;SDS011;11258;52.516;13.318;2023-11-18T10:38:33;9.10;;;4.70;;
22184;SDS011;11258;52.516;13.318;2023-11-18T10:41:08;7.80;;;4.50;;
22184;SDS011;11258;52.516;13.318;2023-11-18T10:43:37;8.87;;;5.13;;
22184;SDS011;11258;52.516;13.318;2023-11-18T10:46:07;7.27;;;4.97;;
22184;SDS011;11258;52.516;13.318;2023-11-18T10:48:47;9.60;;;5.07;;
22184;SDS011;11258;52.516;13.318;2023-11-18T10:51:14;11.30;;;5.60;;
22184;SDS011;11258;52.516;13.318;2023-11-18T10:53:41;9.13;;;5.33;;
22184;SDS011;11258;52.516;13.318;2023-11-18T10:56:18;9.47;;;5.43;;
22184;SDS011;11258;52.516;13.318;2023-11-18T10:59:04;7.93;;;5.30;;
22184;SDS011;11258;52.516;13.318;2023-11-18T11:01:31;8.43;;;4.73;;
22184;SDS011;11258;52.516;13.318;2023-11-18T11:03:58;8.80;;;4.73;;
22184;SDS011;11258;52.516;13.318;2023-11-18T11:06:25;9.23;;;4.17;;
22184;SDS011;11258;52.516;13.318;2023-11-18T11:08:51;7.53;;;3.93;;
22184;SDS011;11258;52.516;13.318;2023-11-18T11:11:19;7.50;;;4.10;;
22184;SDS011;11258;52.516;13.318;2023-11-18T11:13:47;9.33;;;4.67;;
22184;SDS011;11258;52.516;13.318;2023-11-18T11:16:19;8.90;;;4.57;;
22184;SDS011;11258;52.516;13.318;2023-11-18T11:18:47;6.40;;;4.10;;
22184;SDS011;11258;52.516;13.318;2023-11-18T11:21:27;6.57;;;3.97;;
22184;SDS011;11258;52.516;13.318;2023-11-18T11:24:06;7.33;;;4.43;;
22184;SDS011;11258;52.516;13.318;2023-11-18T11:29:54;7.10;;;4.13;;
22184;SDS011;11258;52.516;13.318;2023-11-18T11:32:35;5.07;;;3.37;;
22184;SDS011;11258;52.516;13.318;2023-11-18T11:35:19;6.70;;;4.23;;
22184;SDS011;11258;52.516;13.318;2023-11-18T11:37:48;7.17;;;3.83;;
22184;SDS011;11258;52.516;13.318;2023-11-18T11:40:15;8.53;;;4.40;;
22184;SDS011;11258;52.516;13.318;2023-11-18T11:42:47;6.60;;;3.80;;
22184;SDS011;11258;52.516;13.318;2023-11-18T11:45:20;7.10;;;3.50;;
22184;SDS011;11258;52.516;13.318;2023-11-18T11:47:50;7.30;;;3.57;;
22184;SDS011;11258;52.516;13.318;2023-11-18T11:50:19;5.80;;;3.40;;
22184;SDS011;11258;52.516;13.318;2023-11-18T11:52:58;4.80;;;3.27;;
22184;SDS011;11258;52.516;13.318;2023-11-18T11:55:38;4.10;;;3.13;;
22184;SDS011;11258;52.516;13.318;2023-11-18T11:58:28;5.60;;;3.70;;
22184;SDS011;11258;52.516;13.318;2023-11-18T12:00:58;7.47;;;3.87;;
22184;SDS011;11258;52.516;13.318;2023-11-18T12:03:40;6.57;;;4.00;;
22184;SDS011;11258;52.516;13.318;2023-11-18T12:06:08;8.63;;;4.63;;
22184;SDS011;11258;52.516;13.318;2023-11-18T12:08:37;9.37;;;4.67;;
22184;SDS011;11258;52.516;13.318;2023-11-18T12:11:05;8.53;;;4.80;;
22184;SDS011;11258;52.516;13.318;2023-11-18T12:13:34;9.17;;;5.03;;
22184;SDS011;11258;52.516;13.318;2023-11-18T12:16:04;7.97;;;4.77;;
22184;SDS011;11258;52.516;13.318;2023-11-18T12:18:30;8.40;;;4.70;;
22184;SDS011;11258;52.516;13.318;2023-11-18T12:21:01;7.57;;;4.00;;
22184;SDS011;11258;52.516;13.318;2023-11-18T12:23:28;8.17;;;4.20;;
22184;SDS011;11258;52.516;13.318;2023-11-18T12:25:55;7.47;;;4.20;;
22184;SDS011;11258;52.516;13.318;2023-11-18T12:28:31;9.23;;;4.23;;
22184;SDS011;11258;52.516;13.318;2023-11-18T12:31:02;9.10;;;4.30;;
22184;SDS011;11258;52.516;13.318;2023-11-18T12:39:02;5.50;;;3.60;;
22184;SDS011;11258;52.516;13.318;2023-11-18T12:42:03;9.17;;;3.93;;
22184;SDS011;11258;52.516;13.318;2023-11-18T12:44:33;6.63;;;3.93;;
22184;SDS011;11258;52.516;13.318;2023-11-18T12:47:04;6.73;;;3.80;;
22184;SDS011;11258;52.516;13.318;2023-11-18T12:49:43;9.87;;;4.00;;
22184;SDS011;11258;52.516;13.318;2023-11-18T12:52:19;7.93;;;3.93;;
22184;SDS011;11258;52.516;13.318;2023-11-18T12:54:46;7.10;;;3.80;;
22184;SDS011;11258;52.516;13.318;2023-11-18T12:57:22;5.07;;;3.30;;
22184;SDS011;11258;52.516;13.318;2023-11-18T12:59:56;4.43;;;3.00;;
22184;SDS011;11258;52.516;13.318;2023-11-18T13:02:21;5.90;;;3.33;;
22184;SDS011;11258;52.516;13.318;2023-11-18T13:04:48;5.50;;;2.90;;
22184;SDS011;11258;52.516;13.318;2023-11-18T13:07:15;5.03;;;2.40;;
22184;SDS011;11258;52.516;13.318;2023-11-18T13:09:46;5.27;;;3.27;;
22184;SDS011;11258;52.516;13.318;2023-11-18T13:12:15;7.17;;;2.80;;
22184;SDS011;11258;52.516;13.318;2023-11-18T13:14:44;4.07;;;3.20;;
22184;SDS011;11258;52.516;13.318;2023-11-18T13:17:14;6.50;;;3.03;;
22184;SDS011;11258;52.516;13.318;2023-11-18T13:19:42;6.83;;;3.30;;
22184;SDS011;11258;52.516;13.318;2023-11-18T13:22:09;4.43;;;2.70;;
22184;SDS011;11258;52.516;13.318;2023-11-18T13:24:39;7.83;;;3.33;;
22184;SDS011;11258;52.516;13.318;2023-11-18T13:27:12;5.23;;;3.00;;
22184;SDS011;11258;52.516;13.318;2023-11-18T13:29:44;5.40;;;3.30;;
22184;SDS011;11258;52.516;13.318;2023-11-18T13:32:13;5.73;;;3.70;;
22184;SDS011;11258;52.516;13.318;2023-11-18T13:34:40;5.80;;;3.30;;
22184;SDS011;11258;52.516;13.318;2023-11-18T13:37:07;7.27;;;3.97;;
22184;SDS011;11258;52.516;13.318;2023-11-18T13:39:36;6.07;;;3.50;;
22184;SDS011;11258;52.516;13.318;2023-11-18T13:42:19;8.23;;;3.93;;
22184;SDS011;11258;52.516;13.318;2023-11-18T13:44:46;7.07;;;4.10;;
22184;SDS011;11258;52.516;13.318;2023-11-18T13:47:13;8.27;;;3.93;;
22184;SDS011;11258;52.516;13.318;2023-11-18T13:49:41;6.90;;;3.90;;
22184;SDS011;11258;52.516;13.318;2023-11-18T13:52:07;5.73;;;3.40;;
22184;SDS011;11258;52.516;13.318;2023-11-18T13:54:35;8.13;;;3.80;;
22184;SDS011;11258;52.516;13.318;2023-11-18T13:57:02;6.73;;;3.90;;
22184;SDS011;11258;52.516;13.318;2023-11-18T13:59:29;7.67;;;4.30;;
22184;SDS011;11258;52.516;13.318;2023-11-18T14:01:55;7.07;;;3.90;;
22184;SDS011;11258;52.516;13.318;2023-11-18T14:04:29;9.00;;;4.47;;
22184;SDS011;11258;52.516;13.318;2023-11-18T14:06:57;8.60;;;4.40;;
22184;SDS011;11258;52.516;13.318;2023-11-18T14:09:24;12.13;;;5.80;;
22184;SDS011;11258;52.516;13.318;2023-11-18T14:11:53;10.07;;;5.90;;
22184;SDS011;11258;52.516;13.318;2023-11-18T14:14:22;10.33;;;5.53;;
22184;SDS011;11258;52.516;13.318;2023-11-18T14:16:50;10.47;;;4.93;;
22184;SDS011;11258;52.516;13.318;2023-11-18T14:19:18;11.07;;;5.13;;
22184;SDS011;11258;52.516;13.318;2023-11-18T14:21:44;10.37;;;5.30;;
22184;SDS011;11258;52.516;13.318;2023-11-18T14:24:10;11.30;;;5.23;;
22184;SDS011;11258;52.516;13.318;2023-11-18T14:26:37;10.73;;;4.87;;
22184;SDS011;11258;52.516;13.318;2023-11-18T14:29:04;9.90;;;5.60;;
22184;SDS011;11258;52.516;13.318;2023-11-18T14:31:31;11.63;;;5.00;;
22184;SDS011;11258;52.516;13.318;2023-11-18T14:33:57;9.37;;;4.90;;
22184;SDS011;11258;52.516;13.318;2023-11-18T14:36:24;10.60;;;5.10;;
22184;SDS011;11258;52.516;13.318;2023-11-18T14:38:53;11.30;;;5.63;;
22184;SDS011;11258;52.516;13.318;2023-11-18T14:41:19;8.90;;;5.40;;
22184;SDS011;11258;52.516;13.318;2023-11-18T14:43:49;8.47;;;4.83;;
22184;SDS011;11258;52.516;13.318;2023-11-18T14:46:15;11.07;;;5.03;;
22184;SDS011;11258;52.516;13.318;2023-11-18T14:48:41;9.53;;;4.97;;
22184;SDS011;11258;52.516;13.318;2023-11-18T14:51:06;9.80;;;5.20;;
22184;SDS011;11258;52.516;13.318;2023-11-18T14:53:32;10.70;;;5.00;;
22184;SDS011;11258;52.516;13.318;2023-11-18T14:55:59;11.80;;;5.57;;
22184;SDS011;11258;52.516;13.318;2023-11-18T14:58:25;10.00;;;4.67;;